Carthage, Missouri
Current Conditions -  °F | °C
As of 9:53 AM on Thursday 30 Oct 2014 (Local Time) from KJLN Reporting Station
Scattered Clouds Scattered Clouds  
Wind Chill: 58°   Ceiling: Unl
Heat Index: 58°   Visibility: 10mi
Dew Point: 42°   Wind: 17mph
Humidity: 56%   Direction: 220°SW
Pressure: 30.08"   Gusts: 24mph
Location:  37.18°N, 94.31°W
Report Text: KJLN 301453Z 22015G21KT 10SM FEW090 SCT120 14/06 A3008 RMK AO2 SLP184 T01440056 55002
Loading
Personal Weather Stations






























Interactive Weather Map
Tropical Storm Tracking
New forecast layout! Learn more

10-Day Weather Forecast

Advertisements
Track Severe Weather on mobile